createdAt,value
2022-07-29T00:01:00.643Z,18.41
2022-07-29T00:03:27.350Z,18.42
2022-07-29T00:05:54.329Z,18.41
2022-07-29T00:08:21.181Z,18.42
2022-07-29T00:10:48.157Z,18.47
2022-07-29T00:13:15.113Z,18.47
2022-07-29T00:15:41.979Z,18.52
2022-07-29T00:18:08.681Z,18.50
2022-07-29T00:20:35.558Z,18.47
2022-07-29T00:23:02.336Z,18.34
2022-07-29T00:25:29.245Z,18.33
2022-07-29T00:27:56.067Z,18.28
2022-07-29T00:30:22.836Z,18.24
2022-07-29T00:32:49.713Z,18.17
2022-07-29T00:35:35.116Z,18.20
2022-07-29T00:38:02.071Z,18.14
2022-07-29T00:40:29.021Z,18.10
2022-07-29T00:42:56.211Z,18.01
2022-07-29T00:45:23.414Z,17.99
2022-07-29T00:47:51.306Z,18.02
2022-07-29T00:50:19.034Z,18.00
2022-07-29T00:52:45.875Z,17.97
2022-07-29T00:55:15.702Z,17.93
2022-07-29T00:57:43.980Z,17.91
2022-07-29T01:00:15.721Z,17.88
2022-07-29T01:02:42.486Z,17.84
2022-07-29T01:05:09.926Z,17.85
2022-07-29T01:07:38.054Z,17.81
2022-07-29T01:10:07.394Z,17.76
2022-07-29T01:12:35.592Z,17.75
2022-07-29T01:15:05.379Z,17.73
2022-07-29T01:17:52.473Z,17.75
2022-07-29T01:20:55.423Z,17.74
2022-07-29T01:23:53.323Z,17.76
2022-07-29T01:26:36.076Z,17.73
2022-07-29T01:29:14.125Z,17.71
2022-07-29T01:31:59.016Z,17.68
2022-07-29T01:34:51.755Z,17.65
2022-07-29T01:37:36.503Z,17.61
2022-07-29T01:40:06.015Z,17.57
2022-07-29T01:42:42.786Z,17.51
2022-07-29T01:45:18.562Z,17.45
2022-07-29T01:48:00.711Z,17.35
2022-07-29T01:50:36.169Z,17.31
2022-07-29T01:53:10.400Z,17.29
2022-07-29T01:55:41.502Z,17.32
2022-07-29T01:58:09.915Z,17.25
2022-07-29T02:00:38.747Z,17.24
2022-07-29T02:03:11.495Z,17.22
2022-07-29T02:05:42.142Z,17.24
2022-07-29T02:08:11.151Z,17.26
2022-07-29T02:10:40.591Z,17.24
2022-07-29T02:13:10.698Z,17.25
2022-07-29T02:15:38.585Z,17.21
2022-07-29T02:18:18.603Z,17.18
2022-07-29T02:20:50.505Z,17.20
2022-07-29T02:23:20.960Z,17.13
2022-07-29T02:25:52.556Z,17.19
2022-07-29T02:28:21.129Z,17.15
2022-07-29T02:30:49.074Z,17.09
2022-07-29T02:33:19.384Z,17.11
2022-07-29T02:35:48.802Z,17.11
2022-07-29T02:38:38.456Z,17.02
2022-07-29T02:41:38.376Z,17.04
2022-07-29T02:44:13.981Z,17.00
2022-07-29T02:47:04.225Z,16.99
2022-07-29T02:49:38.434Z,16.97
2022-07-29T02:52:17.223Z,16.95
2022-07-29T02:54:52.700Z,16.95
2022-07-29T02:58:02.548Z,16.89
2022-07-29T03:00:32.480Z,16.86
2022-07-29T03:03:05.826Z,16.86
2022-07-29T03:05:33.395Z,16.91
2022-07-29T03:08:04.301Z,16.82
2022-07-29T03:10:32.299Z,16.82
2022-07-29T03:12:59.780Z,16.81
2022-07-29T03:15:27.052Z,16.77
2022-07-29T03:17:54.894Z,16.79
2022-07-29T03:20:22.126Z,16.76
2022-07-29T03:22:48.841Z,16.70
2022-07-29T03:25:20.128Z,16.67
2022-07-29T03:27:48.256Z,16.67
2022-07-29T03:30:21.968Z,16.65
2022-07-29T03:32:52.160Z,16.63
2022-07-29T03:35:23.679Z,16.60
2022-07-29T03:37:50.813Z,16.59
2022-07-29T03:40:24.630Z,16.57
2022-07-29T03:42:55.795Z,16.58
2022-07-29T03:45:23.766Z,16.57
2022-07-29T03:48:00.413Z,16.64
2022-07-29T03:50:29.761Z,16.62
2022-07-29T03:52:56.678Z,16.61
2022-07-29T03:55:23.760Z,16.57
2022-07-29T03:57:51.096Z,16.57
2022-07-29T04:00:18.193Z,16.53
2022-07-29T04:02:49.941Z,16.53
2022-07-29T04:05:18.722Z,16.48
2022-07-29T04:07:49.678Z,16.46
2022-07-29T04:10:30.182Z,16.44
2022-07-29T04:12:59.755Z,16.40
2022-07-29T04:15:31.018Z,16.38
2022-07-29T04:17:58.029Z,16.36
2022-07-29T04:20:24.697Z,16.37
2022-07-29T04:22:51.448Z,16.40
2022-07-29T04:25:18.428Z,16.44
2022-07-29T04:28:05.347Z,16.43
2022-07-29T04:30:33.204Z,16.44
2022-07-29T04:33:01.963Z,16.50
2022-07-29T04:35:30.180Z,16.60
2022-07-29T04:37:57.054Z,16.63
2022-07-29T04:40:23.785Z,16.67
2022-07-29T04:42:50.675Z,16.63
2022-07-29T04:45:22.561Z,16.62
2022-07-29T04:47:49.692Z,16.65
2022-07-29T04:50:16.483Z,16.69
2022-07-29T04:52:43.275Z,16.70
2022-07-29T04:55:10.548Z,16.74
2022-07-29T04:57:37.520Z,16.81
2022-07-29T05:00:05.712Z,16.75
2022-07-29T05:02:32.455Z,16.79
2022-07-29T05:04:59.189Z,16.81
2022-07-29T05:07:26.047Z,16.82
2022-07-29T05:09:53.731Z,16.85
2022-07-29T05:12:20.435Z,16.95
2022-07-29T05:14:47.163Z,17.02
2022-07-29T05:17:14.076Z,17.01
2022-07-29T05:19:40.866Z,17.01
2022-07-29T05:22:07.793Z,17.08
2022-07-29T05:24:34.462Z,17.17
2022-07-29T05:27:01.320Z,17.22
2022-07-29T05:29:44.518Z,17.25
2022-07-29T05:32:13.773Z,17.34
2022-07-29T05:34:51.383Z,17.36
2022-07-29T05:37:22.481Z,17.49
2022-07-29T05:39:50.513Z,17.49
2022-07-29T05:42:23.295Z,17.50
2022-07-29T05:44:50.200Z,17.47
2022-07-29T05:47:17.149Z,17.64
2022-07-29T05:49:44.157Z,17.71
2022-07-29T05:52:10.896Z,17.73
2022-07-29T05:54:37.643Z,17.79
2022-07-29T05:57:04.768Z,17.76
2022-07-29T05:59:31.593Z,17.61
2022-07-29T06:01:58.868Z,17.65
2022-07-29T06:04:25.755Z,17.67
2022-07-29T06:06:52.662Z,17.62
2022-07-29T06:09:19.723Z,17.66
2022-07-29T06:11:46.639Z,17.68
2022-07-29T06:14:13.706Z,17.62
2022-07-29T06:16:40.680Z,17.60
2022-07-29T06:19:07.882Z,17.63
2022-07-29T06:21:36.267Z,17.72
2022-07-29T06:24:09.188Z,17.64
2022-07-29T06:26:39.587Z,17.59
2022-07-29T06:29:08.234Z,17.47
2022-07-29T06:31:35.728Z,17.45
2022-07-29T06:34:02.448Z,17.49
2022-07-29T06:36:30.994Z,17.59
2022-07-29T06:38:58.000Z,17.58
2022-07-29T06:41:24.870Z,17.50
2022-07-29T06:43:54.601Z,17.58
2022-07-29T06:46:24.317Z,17.44
2022-07-29T06:48:52.928Z,17.55
2022-07-29T06:51:22.908Z,17.56
2022-07-29T06:54:00.494Z,17.67
2022-07-29T06:56:38.244Z,17.79
2022-07-29T06:59:11.339Z,17.89
2022-07-29T07:01:40.198Z,17.94
2022-07-29T07:04:09.760Z,17.99
2022-07-29T07:06:38.921Z,18.05
2022-07-29T07:09:06.117Z,18.08
2022-07-29T07:11:35.498Z,18.13
2022-07-29T07:14:04.158Z,18.18
2022-07-29T07:16:32.851Z,18.25
2022-07-29T07:19:00.510Z,18.29
2022-07-29T07:21:30.363Z,18.29
2022-07-29T07:23:57.615Z,18.36
2022-07-29T07:26:24.437Z,18.45
2022-07-29T07:28:51.273Z,18.45
2022-07-29T07:31:18.387Z,18.48
2022-07-29T07:33:45.311Z,18.51
2022-07-29T07:36:12.488Z,18.53
2022-07-29T07:38:40.374Z,18.57
2022-07-29T07:41:07.228Z,18.65
2022-07-29T07:43:34.266Z,18.66
2022-07-29T07:46:02.213Z,18.73
2022-07-29T07:48:28.995Z,18.75
2022-07-29T07:50:57.218Z,18.74
2022-07-29T07:53:24.162Z,18.75
2022-07-29T07:56:10.069Z,18.80
2022-07-29T07:58:38.107Z,18.89
2022-07-29T08:01:04.919Z,18.91
2022-07-29T08:03:33.846Z,18.96
2022-07-29T08:06:00.665Z,19.01
2022-07-29T08:08:27.422Z,19.06
2022-07-29T08:10:54.528Z,19.13
2022-07-29T08:13:23.242Z,19.18
2022-07-29T08:15:58.918Z,19.22
2022-07-29T08:18:27.747Z,19.27
2022-07-29T08:20:55.416Z,19.32
2022-07-29T08:23:22.447Z,19.40
2022-07-29T08:25:50.142Z,19.39
2022-07-29T08:28:17.806Z,19.45
2022-07-29T08:30:44.647Z,19.43
2022-07-29T08:33:11.605Z,19.42
2022-07-29T08:35:39.814Z,19.37
2022-07-29T08:38:06.657Z,19.38
2022-07-29T08:40:33.518Z,19.44
2022-07-29T08:43:09.956Z,19.41
2022-07-29T08:45:48.606Z,19.45
2022-07-29T08:48:20.531Z,19.51
2022-07-29T08:50:49.166Z,19.52
2022-07-29T08:53:17.717Z,19.54
2022-07-29T08:55:47.680Z,19.56
2022-07-29T08:58:16.437Z,19.61
2022-07-29T09:00:46.902Z,19.58
2022-07-29T09:03:19.154Z,19.56
2022-07-29T09:05:48.385Z,19.58
2022-07-29T09:08:17.011Z,19.60
2022-07-29T09:10:44.643Z,19.57
2022-07-29T09:13:11.595Z,19.55
2022-07-29T09:15:38.784Z,19.56
2022-07-29T09:18:08.534Z,19.52
2022-07-29T09:21:12.242Z,19.57
2022-07-29T09:23:40.762Z,19.61
2022-07-29T09:26:08.547Z,19.58
2022-07-29T09:28:42.567Z,19.61
2022-07-29T09:31:09.631Z,19.58
2022-07-29T09:33:36.875Z,19.54
2022-07-29T09:36:05.874Z,19.43
2022-07-29T09:38:33.633Z,19.38
2022-07-29T09:41:06.348Z,19.43
2022-07-29T09:43:33.640Z,19.43
2022-07-29T09:46:16.727Z,19.41
2022-07-29T09:48:43.703Z,19.44
2022-07-29T09:51:24.240Z,19.49
2022-07-29T09:53:53.785Z,19.39
2022-07-29T09:56:20.727Z,19.31
2022-07-29T09:58:47.479Z,19.20
2022-07-29T10:01:15.162Z,19.05
2022-07-29T10:03:54.538Z,18.86
2022-07-29T10:06:21.406Z,18.67
2022-07-29T10:08:48.186Z,18.43
2022-07-29T10:11:19.311Z,18.19
2022-07-29T10:13:49.312Z,17.89
2022-07-29T10:16:17.105Z,17.80
2022-07-29T10:18:45.066Z,17.87
2022-07-29T10:21:34.509Z,17.88
2022-07-29T10:24:01.363Z,18.01
2022-07-29T10:26:29.638Z,18.01
2022-07-29T10:28:56.888Z,18.03
2022-07-29T10:32:06.102Z,18.23
2022-07-29T10:34:38.273Z,18.34
2022-07-29T10:37:23.608Z,18.48
2022-07-29T10:39:59.512Z,18.55
2022-07-29T10:42:29.798Z,18.61
2022-07-29T10:45:02.931Z,18.60
2022-07-29T10:47:31.910Z,18.69
2022-07-29T10:50:03.925Z,18.74
2022-07-29T10:52:54.264Z,18.70
2022-07-29T10:55:43.067Z,18.76
2022-07-29T10:58:14.445Z,18.70
2022-07-29T11:00:41.633Z,18.66
2022-07-29T11:03:49.476Z,18.77
2022-07-29T11:06:26.338Z,18.70
2022-07-29T11:09:25.596Z,18.68
2022-07-29T11:12:02.727Z,18.71
2022-07-29T11:14:54.371Z,18.82
2022-07-29T11:17:23.558Z,18.73
2022-07-29T11:19:51.987Z,18.83
2022-07-29T11:22:45.844Z,18.90
2022-07-29T11:25:19.378Z,18.92
2022-07-29T11:28:22.688Z,18.85
2022-07-29T11:30:55.106Z,18.72
2022-07-29T11:33:54.815Z,18.64
2022-07-29T11:36:28.072Z,18.66
2022-07-29T11:39:26.730Z,18.68
2022-07-29T11:42:32.380Z,18.70
2022-07-29T11:45:44.231Z,18.69
2022-07-29T11:48:28.934Z,18.77
2022-07-29T11:50:54.008Z,18.83
2022-07-29T11:53:21.930Z,18.87
2022-07-29T11:55:56.450Z,18.85
2022-07-29T11:58:26.142Z,19.00
2022-07-29T12:03:41.075Z,18.97
2022-07-29T12:06:17.454Z,19.07
2022-07-29T12:08:47.577Z,19.12
2022-07-29T12:11:21.423Z,19.18
2022-07-29T12:13:49.936Z,19.16
2022-07-29T12:16:25.677Z,19.15
2022-07-29T12:19:02.298Z,19.14
2022-07-29T12:21:45.785Z,19.13
2022-07-29T12:24:26.696Z,19.19
2022-07-29T12:27:02.479Z,19.28
2022-07-29T12:29:34.746Z,19.40
2022-07-29T12:32:05.333Z,19.40
2022-07-29T12:34:33.478Z,19.45
2022-07-29T12:37:02.019Z,19.50
2022-07-29T12:39:29.304Z,19.49
2022-07-29T12:42:04.422Z,19.55
2022-07-29T12:44:49.305Z,19.70
2022-07-29T12:47:17.461Z,19.79
2022-07-29T12:49:44.515Z,19.88
2022-07-29T12:52:31.665Z,19.98
2022-07-29T12:54:58.722Z,19.99
2022-07-29T12:57:27.003Z,19.96
2022-07-29T13:00:24.279Z,20.01
2022-07-29T13:02:59.784Z,19.97
2022-07-29T13:05:39.926Z,20.00
2022-07-29T13:08:20.455Z,20.01
2022-07-29T13:10:49.175Z,20.04
2022-07-29T13:13:16.372Z,20.06
2022-07-29T13:15:49.631Z,20.05
2022-07-29T13:18:33.760Z,20.07
2022-07-29T13:21:15.116Z,20.00
2022-07-29T13:23:46.319Z,19.94
2022-07-29T13:26:13.347Z,19.92
2022-07-29T13:28:44.306Z,19.92
2022-07-29T13:31:11.478Z,19.93
2022-07-29T13:33:38.434Z,19.83
2022-07-29T13:36:05.563Z,19.85
2022-07-29T13:38:32.312Z,19.89
2022-07-29T13:40:59.718Z,19.92
2022-07-29T13:43:26.755Z,19.95
2022-07-29T13:45:53.484Z,20.03
2022-07-29T13:48:20.324Z,20.09
2022-07-29T13:50:47.836Z,20.12
2022-07-29T13:53:17.828Z,20.24
2022-07-29T13:55:45.307Z,20.38
2022-07-29T13:58:12.423Z,20.51
2022-07-29T14:00:39.349Z,20.64
2022-07-29T14:03:07.675Z,20.94
2022-07-29T14:05:34.742Z,21.27
2022-07-29T14:08:01.571Z,21.59
2022-07-29T14:10:28.437Z,22.01
2022-07-29T14:12:55.265Z,22.92
2022-07-29T14:15:22.176Z,24.05
2022-07-29T14:17:48.830Z,24.94
2022-07-29T14:20:17.258Z,25.68
2022-07-29T14:22:44.997Z,26.46
2022-07-29T14:25:15.278Z,26.83
2022-07-29T14:27:44.831Z,27.33
2022-07-29T14:30:16.390Z,27.55
2022-07-29T14:32:44.048Z,27.86
2022-07-29T14:35:11.112Z,27.96
2022-07-29T14:37:39.963Z,27.94
2022-07-29T14:40:09.073Z,28.23
2022-07-29T14:42:37.276Z,28.42
2022-07-29T14:45:08.501Z,28.79
2022-07-29T14:47:35.638Z,28.83
2022-07-29T14:50:03.419Z,28.40
2022-07-29T14:52:30.263Z,27.81
2022-07-29T14:54:57.129Z,27.25
2022-07-29T14:57:24.056Z,26.71
2022-07-29T14:59:50.911Z,26.33
2022-07-29T15:02:17.874Z,26.03
2022-07-29T15:04:46.852Z,25.95
2022-07-29T15:07:13.566Z,25.62
2022-07-29T15:09:49.651Z,25.39
2022-07-29T15:12:17.154Z,25.30
2022-07-29T15:14:44.035Z,25.33
2022-07-29T15:17:11.073Z,25.29
2022-07-29T15:19:38.031Z,25.16
2022-07-29T15:22:06.428Z,25.13
2022-07-29T15:24:35.675Z,25.17
2022-07-29T15:27:03.585Z,25.23
2022-07-29T15:29:30.348Z,25.34
2022-07-29T15:31:57.717Z,25.41
2022-07-29T15:34:24.839Z,25.42
2022-07-29T15:36:53.301Z,25.40
2022-07-29T15:39:22.092Z,25.38
2022-07-29T15:41:50.343Z,25.26
2022-07-29T15:44:17.148Z,25.32
2022-07-29T15:47:05.973Z,25.41
2022-07-29T15:49:47.190Z,25.41
2022-07-29T15:52:25.641Z,25.45
2022-07-29T15:54:54.136Z,25.42
2022-07-29T15:57:21.088Z,25.44
2022-07-29T15:59:47.987Z,25.44
2022-07-29T16:02:14.735Z,25.48
2022-07-29T16:04:41.692Z,25.51
2022-07-29T16:07:08.480Z,25.61
2022-07-29T16:09:35.328Z,25.70
2022-07-29T16:12:02.363Z,25.68
2022-07-29T16:14:32.020Z,25.71
2022-07-29T16:16:59.085Z,25.79
2022-07-29T16:19:26.139Z,25.60
2022-07-29T16:21:54.979Z,25.65
2022-07-29T16:24:29.815Z,25.65
2022-07-29T16:26:57.327Z,25.61
2022-07-29T16:29:24.380Z,25.73
2022-07-29T16:31:53.442Z,26.19
2022-07-29T16:34:20.279Z,27.13
2022-07-29T16:36:47.996Z,27.56
2022-07-29T16:39:14.897Z,27.56
2022-07-29T16:41:42.342Z,27.69
2022-07-29T16:44:09.069Z,27.49
2022-07-29T16:46:37.518Z,27.45
2022-07-29T16:49:06.111Z,27.70
2022-07-29T16:51:32.904Z,28.38
2022-07-29T16:53:59.834Z,28.96
2022-07-29T16:56:26.653Z,29.40
2022-07-29T16:58:54.429Z,29.61
2022-07-29T17:01:21.447Z,29.66
2022-07-29T17:04:06.702Z,29.88
2022-07-29T17:06:35.272Z,29.74
2022-07-29T17:09:07.285Z,29.77
2022-07-29T17:11:53.020Z,29.99
2022-07-29T17:14:32.258Z,30.20
2022-07-29T17:17:02.003Z,30.28
2022-07-29T17:19:35.273Z,30.01
2022-07-29T17:22:15.573Z,30.25
2022-07-29T17:24:45.528Z,30.01
2022-07-29T17:27:12.767Z,29.80
2022-07-29T17:29:39.660Z,29.81
2022-07-29T17:32:08.224Z,29.36
2022-07-29T17:34:39.699Z,29.26
2022-07-29T17:37:08.273Z,29.09
2022-07-29T17:39:35.728Z,29.14
2022-07-29T17:42:03.934Z,29.24
2022-07-29T17:44:31.087Z,28.98
2022-07-29T17:46:59.584Z,28.73
2022-07-29T17:49:27.270Z,28.88
2022-07-29T17:51:59.026Z,28.86
2022-07-29T17:54:27.738Z,28.58
2022-07-29T17:56:54.428Z,28.26
2022-07-29T17:59:21.932Z,28.27
2022-07-29T18:01:48.898Z,28.36
2022-07-29T18:04:20.224Z,28.36
2022-07-29T18:06:47.091Z,28.04
2022-07-29T18:09:14.065Z,28.19
2022-07-29T18:11:40.969Z,28.22
2022-07-29T18:14:11.218Z,28.16
2022-07-29T18:16:38.656Z,28.18
2022-07-29T18:19:05.572Z,28.16
2022-07-29T18:21:43.514Z,28.11
2022-07-29T18:24:19.406Z,27.86
2022-07-29T18:26:46.269Z,27.81
2022-07-29T18:29:12.967Z,27.57
2022-07-29T18:31:41.306Z,27.56
2022-07-29T18:34:08.441Z,27.53
2022-07-29T18:36:36.167Z,27.36
2022-07-29T18:39:03.191Z,27.05
2022-07-29T18:41:30.057Z,26.67
2022-07-29T18:43:56.863Z,26.34
2022-07-29T18:46:26.506Z,26.15
2022-07-29T18:48:53.341Z,25.96
2022-07-29T18:51:20.129Z,25.71
2022-07-29T18:53:47.112Z,25.57
2022-07-29T18:56:14.887Z,25.44
2022-07-29T18:58:41.663Z,25.26
2022-07-29T19:01:09.333Z,25.06
2022-07-29T19:03:37.367Z,24.90
2022-07-29T19:06:05.355Z,24.68
2022-07-29T19:08:34.613Z,24.56
2022-07-29T19:11:01.526Z,24.35
2022-07-29T19:13:28.321Z,24.25
2022-07-29T19:15:55.321Z,24.05
2022-07-29T19:18:22.401Z,23.94
2022-07-29T19:20:49.292Z,23.80
2022-07-29T19:23:16.190Z,23.74
2022-07-29T19:25:53.134Z,23.63
2022-07-29T19:28:21.283Z,23.54
2022-07-29T19:30:48.348Z,23.42
2022-07-29T19:33:17.639Z,23.35
2022-07-29T19:35:46.026Z,23.31
2022-07-29T19:38:14.864Z,23.16
2022-07-29T19:40:41.652Z,23.03
2022-07-29T19:43:51.830Z,23.00
2022-07-29T19:45:57.770Z,23.01
2022-07-29T19:48:24.715Z,22.92
2022-07-29T19:50:51.611Z,22.84
2022-07-29T19:53:18.600Z,22.64
2022-07-29T19:55:45.502Z,22.61
2022-07-29T19:58:12.293Z,22.56
2022-07-29T20:00:40.065Z,22.44
2022-07-29T20:03:07.013Z,22.44
2022-07-29T20:05:33.879Z,22.33
2022-07-29T20:08:00.717Z,22.32
2022-07-29T20:10:28.327Z,22.28
2022-07-29T20:12:55.220Z,22.29
2022-07-29T20:15:22.453Z,22.18
2022-07-29T20:17:51.818Z,22.08
2022-07-29T20:20:22.665Z,21.87
2022-07-29T20:22:49.579Z,21.77
2022-07-29T20:25:16.527Z,21.76
2022-07-29T20:27:43.593Z,21.71
2022-07-29T20:30:13.519Z,21.62
2022-07-29T20:32:41.405Z,21.53
2022-07-29T20:35:10.083Z,21.45
2022-07-29T20:37:52.097Z,21.29
2022-07-29T20:40:24.131Z,21.22
2022-07-29T20:42:54.948Z,21.09
2022-07-29T20:45:31.017Z,21.04
2022-07-29T20:47:58.525Z,20.93
2022-07-29T20:50:25.464Z,20.82
2022-07-29T20:52:52.793Z,20.65
2022-07-29T20:55:21.203Z,20.51
2022-07-29T20:57:48.484Z,20.48
2022-07-29T21:00:15.731Z,20.34
2022-07-29T21:02:44.989Z,20.46
2022-07-29T21:05:12.010Z,20.45
2022-07-29T21:07:38.885Z,20.45
2022-07-29T21:10:06.305Z,20.38
2022-07-29T21:12:34.029Z,20.30
2022-07-29T21:15:05.410Z,20.38
2022-07-29T21:17:36.147Z,20.42
2022-07-29T21:20:09.697Z,20.40
2022-07-29T21:22:36.637Z,20.31
2022-07-29T21:25:04.343Z,20.29
2022-07-29T21:27:49.941Z,20.27
2022-07-29T21:30:18.133Z,20.23
2022-07-29T21:32:44.954Z,20.17
2022-07-29T21:35:23.415Z,20.16
2022-07-29T21:37:59.290Z,20.10
2022-07-29T21:40:26.270Z,20.06
2022-07-29T21:42:53.202Z,20.10
2022-07-29T21:45:21.666Z,20.06
2022-07-29T21:47:48.555Z,20.04
2022-07-29T21:50:15.628Z,20.03
2022-07-29T21:52:42.523Z,19.99
2022-07-29T21:55:11.495Z,19.91
2022-07-29T21:57:38.488Z,19.85
2022-07-29T22:00:07.874Z,19.75
2022-07-29T22:02:34.855Z,19.66
2022-07-29T22:05:01.663Z,19.76
2022-07-29T22:07:55.455Z,19.76
2022-07-29T22:10:16.139Z,19.78
2022-07-29T22:12:43.038Z,19.74
2022-07-29T22:15:10.530Z,19.77
2022-07-29T22:17:38.754Z,19.74
2022-07-29T22:20:06.397Z,19.64
2022-07-29T22:22:33.467Z,19.68
2022-07-29T22:25:00.733Z,19.50
2022-07-29T22:27:27.655Z,19.57
2022-07-29T22:29:54.397Z,19.54
2022-07-29T22:32:21.391Z,19.50
2022-07-29T22:34:48.139Z,19.47
2022-07-29T22:37:19.271Z,19.40
2022-07-29T22:39:46.150Z,19.33
2022-07-29T22:42:13.164Z,19.24
2022-07-29T22:44:40.050Z,19.09
2022-07-29T22:47:08.177Z,18.92
2022-07-29T22:49:34.914Z,18.85
2022-07-29T22:52:01.845Z,18.77
2022-07-29T22:54:28.680Z,18.51
2022-07-29T22:56:55.438Z,18.61
2022-07-29T22:59:23.416Z,18.65
2022-07-29T23:01:50.203Z,18.54
2022-07-29T23:04:17.134Z,18.48
2022-07-29T23:06:44.135Z,18.45
2022-07-29T23:09:10.859Z,18.44
2022-07-29T23:11:37.891Z,18.27
2022-07-29T23:14:11.005Z,18.35
2022-07-29T23:16:38.028Z,18.33
2022-07-29T23:19:07.324Z,18.22
2022-07-29T23:21:34.291Z,18.11
2022-07-29T23:24:01.062Z,17.91
2022-07-29T23:26:28.238Z,17.89
2022-07-29T23:28:55.405Z,17.90
2022-07-29T23:31:24.255Z,17.88
2022-07-29T23:33:51.021Z,17.86
2022-07-29T23:36:19.822Z,17.80
2022-07-29T23:38:48.788Z,17.81
2022-07-29T23:41:15.904Z,17.74
2022-07-29T23:43:43.873Z,17.68
2022-07-29T23:46:13.179Z,17.63
2022-07-29T23:48:44.152Z,17.64
2022-07-29T23:51:11.952Z,17.65
2022-07-29T23:53:38.870Z,17.63
2022-07-29T23:56:21.201Z,17.58
2022-07-29T23:58:47.986Z,17.56
